createdAt,value
2022-09-01T00:00:01.819Z,7.03
2022-09-01T00:02:32.122Z,9.32
2022-09-01T00:04:59.587Z,10.07
2022-09-01T00:07:32.221Z,11.23
2022-09-01T00:09:59.570Z,9.50
2022-09-01T00:12:26.535Z,10.23
2022-09-01T00:14:53.516Z,7.85
2022-09-01T00:17:20.491Z,13.95
2022-09-01T00:19:47.199Z,8.60
2022-09-01T00:22:13.771Z,7.70
2022-09-01T00:24:40.407Z,7.90
2022-09-01T00:27:07.087Z,12.23
2022-09-01T00:29:34.195Z,12.00
2022-09-01T00:32:00.972Z,8.23
2022-09-01T00:34:27.655Z,8.50
2022-09-01T00:36:54.328Z,14.10
2022-09-01T00:39:21.016Z,8.98
2022-09-01T00:41:50.398Z,11.38
2022-09-01T00:44:18.982Z,9.55
2022-09-01T00:46:50.964Z,10.70
2022-09-01T00:49:35.738Z,9.15
2022-09-01T00:52:07.451Z,10.15
2022-09-01T00:54:35.928Z,10.43
2022-09-01T00:57:04.286Z,8.80
2022-09-01T00:59:31.736Z,8.50
2022-09-01T01:05:34.134Z,8.02
2022-09-01T01:08:02.089Z,9.45
2022-09-01T01:10:32.545Z,12.20
2022-09-01T01:13:02.022Z,11.32
2022-09-01T01:15:29.710Z,10.88
2022-09-01T01:17:56.344Z,10.93
2022-09-01T01:20:44.566Z,8.88
2022-09-01T01:23:37.133Z,8.98
2022-09-01T01:26:05.124Z,8.93
2022-09-01T01:28:34.067Z,9.52
2022-09-01T01:31:05.190Z,9.25
2022-09-01T01:33:42.675Z,10.27
2022-09-01T01:36:12.829Z,10.70
2022-09-01T01:38:41.747Z,17.00
2022-09-01T01:41:08.608Z,9.95
2022-09-01T01:43:35.373Z,11.05
2022-09-01T01:46:05.471Z,12.43
2022-09-01T01:48:37.938Z,12.27
2022-09-01T01:51:06.026Z,10.10
2022-09-01T01:53:33.827Z,10.75
2022-09-01T01:56:00.973Z,11.95
2022-09-01T01:58:32.636Z,12.35
2022-09-01T02:00:59.606Z,11.32
2022-09-01T02:03:28.965Z,13.38
2022-09-01T02:05:55.913Z,11.75
2022-09-01T02:08:25.942Z,12.45
2022-09-01T02:10:55.187Z,14.48
2022-09-01T02:13:30.940Z,13.82
2022-09-01T02:16:00.065Z,13.98
2022-09-01T02:18:28.826Z,15.52
2022-09-01T02:21:01.236Z,14.57
2022-09-01T02:23:28.258Z,15.70
2022-09-01T02:26:15.565Z,17.58
2022-09-01T02:28:45.441Z,15.48
2022-09-01T02:31:12.243Z,17.40
2022-09-01T02:33:40.237Z,15.40
2022-09-01T02:36:10.536Z,16.50
2022-09-01T02:38:38.949Z,15.90
2022-09-01T02:41:05.704Z,17.83
2022-09-01T02:43:32.526Z,16.27
2022-09-01T02:46:01.079Z,18.00
2022-09-01T02:48:36.400Z,15.43
2022-09-01T02:51:05.210Z,16.10
2022-09-01T02:53:35.314Z,17.20
2022-09-01T02:56:03.746Z,16.38
2022-09-01T02:58:35.548Z,15.82
2022-09-01T03:01:02.875Z,15.50
2022-09-01T03:03:29.767Z,18.00
2022-09-01T03:05:56.485Z,15.40
2022-09-01T03:08:24.570Z,17.85
2022-09-01T03:10:52.052Z,16.45
2022-09-01T03:13:20.711Z,16.73
2022-09-01T03:15:48.027Z,15.98
2022-09-01T03:18:15.249Z,15.88
2022-09-01T03:20:43.601Z,15.85
2022-09-01T03:23:14.813Z,14.75
2022-09-01T03:25:47.026Z,15.23
2022-09-01T03:28:13.892Z,15.73
2022-09-01T03:30:45.894Z,16.20
2022-09-01T03:33:12.502Z,17.75
2022-09-01T03:35:39.296Z,15.95
2022-09-01T03:38:06.480Z,15.05
2022-09-01T03:40:34.314Z,16.88
2022-09-01T03:43:01.958Z,15.38
2022-09-01T03:45:29.891Z,16.10
2022-09-01T03:47:56.670Z,16.70
2022-09-01T03:50:24.630Z,14.40
2022-09-01T03:52:59.164Z,15.20
2022-09-01T03:55:31.097Z,15.20
2022-09-01T03:58:06.561Z,13.85
2022-09-01T04:00:48.776Z,14.38
2022-09-01T04:03:28.906Z,14.45
2022-09-01T04:06:00.389Z,16.05
2022-09-01T04:08:32.615Z,14.98
2022-09-01T04:11:02.924Z,14.85
2022-09-01T04:13:35.286Z,14.27
2022-09-01T04:16:02.553Z,13.65
2022-09-01T04:18:30.657Z,12.60
2022-09-01T04:20:58.379Z,13.38
2022-09-01T04:23:30.024Z,13.73
2022-09-01T04:26:09.134Z,12.57
2022-09-01T04:28:38.795Z,12.68
2022-09-01T04:31:08.583Z,13.23
2022-09-01T04:33:39.846Z,14.77
2022-09-01T04:36:14.557Z,14.38
2022-09-01T04:38:41.716Z,14.27
2022-09-01T04:41:09.484Z,11.93
2022-09-01T04:43:36.356Z,12.18
2022-09-01T04:46:03.308Z,12.98
2022-09-01T04:48:31.788Z,11.68
2022-09-01T04:50:58.723Z,12.07
2022-09-01T04:53:28.710Z,10.20
2022-09-01T04:55:55.980Z,13.10
2022-09-01T04:58:26.229Z,11.32
2022-09-01T05:00:53.024Z,9.85
2022-09-01T05:03:32.168Z,10.35
2022-09-01T05:06:14.214Z,14.07
2022-09-01T05:08:48.175Z,11.57
2022-09-01T05:11:27.288Z,10.02
2022-09-01T05:14:03.017Z,10.13
2022-09-01T05:16:29.874Z,8.95
2022-09-01T05:18:57.897Z,9.63
2022-09-01T05:21:29.761Z,10.07
2022-09-01T05:24:01.343Z,8.82
2022-09-01T05:26:30.001Z,9.52
2022-09-01T05:28:59.293Z,8.07
2022-09-01T05:31:29.115Z,21.45
2022-09-01T05:33:58.308Z,12.52
2022-09-01T05:36:25.777Z,9.27
2022-09-01T05:38:54.769Z,14.15
2022-09-01T05:41:23.932Z,11.05
2022-09-01T05:43:57.732Z,8.68
2022-09-01T05:46:27.723Z,10.90
2022-09-01T05:48:55.021Z,11.27
2022-09-01T05:51:43.437Z,8.30
2022-09-01T05:54:12.147Z,8.98
2022-09-01T05:56:43.645Z,8.85
2022-09-01T05:59:27.760Z,10.23
2022-09-01T06:01:58.755Z,10.68
2022-09-01T06:04:26.921Z,8.65
2022-09-01T06:07:06.898Z,10.23
2022-09-01T06:09:40.915Z,8.45
2022-09-01T06:12:09.257Z,8.85
2022-09-01T06:14:35.956Z,9.00
2022-09-01T06:17:03.395Z,11.50
2022-09-01T06:19:34.831Z,8.23
2022-09-01T06:22:04.061Z,10.18
2022-09-01T06:24:31.484Z,9.45
2022-09-01T06:26:59.773Z,9.07
2022-09-01T06:29:26.708Z,8.13
2022-09-01T06:31:53.372Z,10.45
2022-09-01T06:34:20.642Z,8.15
2022-09-01T06:36:49.598Z,11.60
2022-09-01T06:39:19.999Z,8.73
2022-09-01T06:41:53.089Z,9.02
2022-09-01T06:44:24.633Z,8.65
2022-09-01T06:47:00.016Z,9.30
2022-09-01T06:49:32.496Z,8.40
2022-09-01T06:52:03.886Z,8.57
2022-09-01T06:54:34.785Z,11.52
2022-09-01T06:59:52.360Z,8.18
2022-09-01T07:02:19.952Z,7.20
2022-09-01T07:05:58.852Z,9.23
2022-09-01T07:08:12.111Z,8.52
2022-09-01T07:16:40.299Z,7.18
2022-09-01T07:19:18.430Z,7.45
2022-09-01T07:22:09.649Z,7.00
2022-09-01T07:24:46.130Z,8.23
2022-09-01T07:27:49.390Z,6.20
2022-09-01T07:30:18.513Z,5.63
2022-09-01T07:32:50.885Z,7.18
2022-09-01T07:35:22.584Z,5.85
2022-09-01T07:44:05.231Z,6.63
2022-09-01T07:47:19.446Z,5.82
2022-09-01T07:50:11.559Z,7.00
2022-09-01T07:52:28.003Z,4.85
2022-09-01T07:54:57.914Z,7.63
2022-09-01T07:57:24.707Z,5.63
2022-09-01T07:59:53.945Z,6.43
2022-09-01T08:02:28.449Z,4.95
2022-09-01T08:04:55.747Z,6.13
2022-09-01T08:07:22.457Z,5.20
2022-09-01T08:09:49.147Z,7.07
2022-09-01T08:12:16.115Z,5.93
2022-09-01T08:15:12.738Z,5.20
2022-09-01T08:17:56.778Z,5.78
2022-09-01T08:20:25.621Z,5.00
2022-09-01T08:22:56.909Z,6.70
2022-09-01T08:25:31.226Z,4.43
2022-09-01T08:28:00.214Z,4.00
2022-09-01T08:30:27.957Z,4.35
2022-09-01T08:32:54.952Z,4.93
2022-09-01T08:35:22.530Z,7.10
2022-09-01T08:37:49.159Z,5.28
2022-09-01T08:40:18.086Z,5.00
2022-09-01T08:43:03.950Z,4.40
2022-09-01T08:45:30.787Z,4.90
2022-09-01T08:48:57.177Z,5.40
2022-09-01T08:50:52.641Z,6.22
2022-09-01T08:53:32.754Z,3.78
2022-09-01T08:56:00.338Z,4.10
2022-09-01T08:58:30.976Z,3.38
2022-09-01T09:01:27.562Z,4.65
2022-09-01T09:04:09.266Z,4.00
2022-09-01T09:06:39.946Z,4.70
2022-09-01T09:09:07.959Z,4.00
2022-09-01T09:11:40.878Z,5.22
2022-09-01T09:14:13.729Z,3.83
2022-09-01T09:16:47.860Z,3.65
2022-09-01T09:19:34.859Z,5.70
2022-09-01T09:22:04.365Z,4.60
2022-09-01T09:24:47.286Z,3.83
2022-09-01T09:27:18.854Z,3.75
2022-09-01T09:29:46.474Z,4.68
2022-09-01T09:32:51.704Z,3.78
2022-09-01T09:35:17.021Z,3.70
2022-09-01T09:37:43.685Z,3.20
2022-09-01T09:40:10.594Z,5.20
2022-09-01T09:43:01.659Z,4.38
2022-09-01T09:45:28.631Z,4.65
2022-09-01T09:47:56.553Z,4.00
2022-09-01T09:50:34.048Z,5.25
2022-09-01T09:53:11.886Z,3.70
2022-09-01T09:55:53.939Z,4.63
2022-09-01T09:58:26.607Z,3.25
2022-09-01T10:01:05.266Z,3.00
2022-09-01T10:03:51.421Z,3.83
2022-09-01T10:06:32.016Z,5.13
2022-09-01T10:08:59.795Z,3.28
2022-09-01T10:11:33.464Z,4.13
2022-09-01T10:14:02.241Z,3.35
2022-09-01T10:16:31.983Z,4.50
2022-09-01T10:19:00.902Z,3.08
2022-09-01T10:21:33.199Z,3.40
2022-09-01T10:26:49.350Z,3.08
2022-09-01T10:29:18.845Z,4.22
2022-09-01T10:31:45.633Z,3.75
2022-09-01T10:34:15.269Z,3.17
2022-09-01T10:36:47.040Z,3.65
2022-09-01T10:39:14.637Z,5.05
2022-09-01T10:41:41.223Z,6.85
2022-09-01T10:44:19.369Z,3.15
2022-09-01T10:46:50.818Z,7.25
2022-09-01T10:49:46.347Z,3.47
2022-09-01T10:52:33.305Z,3.25
2022-09-01T10:55:01.253Z,3.17
2022-09-01T10:57:46.803Z,3.63
2022-09-01T11:00:40.017Z,3.85
2022-09-01T11:06:13.053Z,3.72
2022-09-01T11:08:42.315Z,3.00
2022-09-01T11:11:14.913Z,3.20
2022-09-01T11:13:47.728Z,3.78
2022-09-01T11:16:47.024Z,2.88
2022-09-01T11:19:38.358Z,3.35
2022-09-01T11:22:26.458Z,2.95
2022-09-01T11:25:11.138Z,5.93
2022-09-01T11:27:48.549Z,3.50
2022-09-01T11:30:22.669Z,5.07
2022-09-01T11:32:53.420Z,5.13
2022-09-01T11:35:22.013Z,3.25
2022-09-01T11:37:49.356Z,3.38
2022-09-01T11:40:21.656Z,4.18
2022-09-01T11:42:51.815Z,3.33
2022-09-01T11:45:22.015Z,3.55
2022-09-01T11:47:56.245Z,4.57
2022-09-01T11:50:32.167Z,2.58
2022-09-01T11:53:10.189Z,2.90
2022-09-01T11:55:40.068Z,3.60
2022-09-01T11:58:09.442Z,2.47
2022-09-01T12:00:38.352Z,2.40
2022-09-01T12:03:25.624Z,2.40
2022-09-01T12:05:59.381Z,3.47
2022-09-01T12:08:28.034Z,2.70
2022-09-01T12:11:06.963Z,11.40
2022-09-01T12:13:33.761Z,2.42
2022-09-01T12:16:18.898Z,2.88
2022-09-01T12:18:51.462Z,2.65
2022-09-01T12:21:40.441Z,3.95
2022-09-01T12:24:12.520Z,2.28
2022-09-01T12:26:39.440Z,3.85
2022-09-01T12:29:07.112Z,2.55
2022-09-01T12:31:34.202Z,3.35
2022-09-01T12:34:04.648Z,4.20
2022-09-01T12:36:34.810Z,2.33
2022-09-01T12:39:19.654Z,2.65
2022-09-01T12:41:48.592Z,2.47
2022-09-01T12:44:32.744Z,2.33
2022-09-01T12:47:00.999Z,2.60
2022-09-01T12:49:36.271Z,2.20
2022-09-01T12:52:06.971Z,2.97
2022-09-01T12:54:33.641Z,3.45
2022-09-01T12:57:00.306Z,2.83
2022-09-01T12:59:37.325Z,6.47
2022-09-01T13:02:22.837Z,5.50
2022-09-01T13:04:50.565Z,4.70
2022-09-01T13:07:18.070Z,8.32
2022-09-01T13:09:45.905Z,5.18
2022-09-01T13:12:17.558Z,13.02
2022-09-01T13:14:44.210Z,5.55
2022-09-01T13:17:14.185Z,14.63
2022-09-01T13:19:41.195Z,2.40
2022-09-01T13:22:07.874Z,2.92
2022-09-01T13:24:34.645Z,3.67
2022-09-01T13:29:48.519Z,2.05
2022-09-01T13:32:19.010Z,2.97
2022-09-01T13:34:46.509Z,4.18
2022-09-01T13:37:13.211Z,2.30
2022-09-01T13:39:40.230Z,3.67
2022-09-01T13:42:06.973Z,3.35
2022-09-01T13:44:34.082Z,2.47
2022-09-01T13:47:27.718Z,2.35
2022-09-01T13:52:34.651Z,4.18
2022-09-01T13:55:01.841Z,2.45
2022-09-01T13:57:28.494Z,2.20
2022-09-01T14:00:04.759Z,5.32
2022-09-01T14:02:38.000Z,2.97
2022-09-01T14:05:04.818Z,2.22
2022-09-01T14:07:32.375Z,3.85
2022-09-01T14:09:59.626Z,2.03
2022-09-01T14:12:26.470Z,2.45
2022-09-01T14:17:39.973Z,3.88
2022-09-01T14:20:08.203Z,2.28
2022-09-01T14:22:38.369Z,2.28
2022-09-01T14:25:05.886Z,2.80
2022-09-01T14:27:32.525Z,3.55
2022-09-01T14:29:59.177Z,2.35
2022-09-01T14:32:27.162Z,2.10
2022-09-01T14:34:54.359Z,2.60
2022-09-01T14:37:21.410Z,2.50
2022-09-01T14:39:55.555Z,2.55
2022-09-01T14:42:24.021Z,2.25
2022-09-01T14:44:50.686Z,4.30
2022-09-01T14:47:19.254Z,2.55
2022-09-01T14:49:47.760Z,3.03
2022-09-01T14:52:14.449Z,3.35
2022-09-01T14:54:44.564Z,2.40
2022-09-01T14:59:58.411Z,2.40
2022-09-01T15:02:29.257Z,2.88
2022-09-01T15:04:56.583Z,2.88
2022-09-01T15:07:23.320Z,3.30
2022-09-01T15:09:50.218Z,4.75
2022-09-01T15:12:17.048Z,2.63
2022-09-01T15:14:43.747Z,2.33
2022-09-01T15:17:10.629Z,2.60
2022-09-01T15:19:37.359Z,2.70
2022-09-01T15:22:06.941Z,4.07
2022-09-01T15:24:35.998Z,2.45
2022-09-01T15:27:02.775Z,2.28
2022-09-01T15:29:34.304Z,2.50
2022-09-01T15:32:03.566Z,2.50
2022-09-01T15:34:30.247Z,3.85
2022-09-01T15:36:56.965Z,4.47
2022-09-01T15:39:23.634Z,2.85
2022-09-01T15:41:50.930Z,6.05
2022-09-01T15:44:17.666Z,3.70
2022-09-01T15:46:45.679Z,3.47
2022-09-01T15:49:12.952Z,2.90
2022-09-01T15:51:41.244Z,2.83
2022-09-01T15:54:12.098Z,3.55
2022-09-01T15:56:38.947Z,2.80
2022-09-01T15:59:07.432Z,2.53
2022-09-01T16:01:36.314Z,2.53
2022-09-01T16:04:04.018Z,5.32
2022-09-01T16:06:32.310Z,5.32
2022-09-01T16:08:59.199Z,4.03
2022-09-01T16:11:28.449Z,3.20
2022-09-01T16:13:55.983Z,3.90
2022-09-01T16:16:41.696Z,3.35
2022-09-01T16:19:16.003Z,2.60
2022-09-01T16:22:05.911Z,3.08
2022-09-01T16:24:38.381Z,4.80
2022-09-01T16:27:07.279Z,2.92
2022-09-01T16:29:51.758Z,2.97
2022-09-01T16:32:21.361Z,2.97
2022-09-01T16:34:48.393Z,4.60
2022-09-01T16:37:33.954Z,2.50
2022-09-01T16:40:10.429Z,2.97
2022-09-01T16:42:57.776Z,6.00
2022-09-01T16:45:30.994Z,4.05
2022-09-01T16:48:01.740Z,4.22
2022-09-01T16:50:35.087Z,4.88
2022-09-01T16:53:05.700Z,2.50
2022-09-01T16:55:38.455Z,3.10
2022-09-01T16:58:18.772Z,3.28
2022-09-01T17:01:05.398Z,3.95
2022-09-01T17:03:43.085Z,4.03
2022-09-01T17:06:31.727Z,4.45
2022-09-01T17:09:08.385Z,4.55
2022-09-01T17:11:39.460Z,3.08
2022-09-01T17:14:08.194Z,3.22
2022-09-01T17:16:45.082Z,2.53
2022-09-01T17:19:16.469Z,3.05
2022-09-01T17:21:53.922Z,2.90
2022-09-01T17:24:28.367Z,2.70
2022-09-01T17:27:04.784Z,3.20
2022-09-01T17:29:34.233Z,3.75
2022-09-01T17:32:05.514Z,3.67
2022-09-01T17:34:41.291Z,3.35
2022-09-01T17:37:18.202Z,3.90
2022-09-01T17:39:56.916Z,3.58
2022-09-01T17:42:27.487Z,2.95
2022-09-01T17:44:56.396Z,3.35
2022-09-01T17:47:31.004Z,4.10
2022-09-01T17:50:10.862Z,3.28
2022-09-01T17:52:52.524Z,4.15
2022-09-01T17:55:29.027Z,3.22
2022-09-01T17:58:02.074Z,5.60
2022-09-01T18:00:42.882Z,4.53
2022-09-01T18:03:09.589Z,3.80
2022-09-01T18:05:40.367Z,4.63
2022-09-01T18:08:33.678Z,5.82
2022-09-01T18:11:02.577Z,3.22
2022-09-01T18:13:53.137Z,3.30
2022-09-01T18:16:31.056Z,3.03
2022-09-01T18:19:01.914Z,3.47
2022-09-01T18:21:34.493Z,6.95
2022-09-01T18:24:11.421Z,3.03
2022-09-01T18:26:47.461Z,3.55
2022-09-01T18:29:14.273Z,3.70
2022-09-01T18:31:59.919Z,6.95
2022-09-01T18:34:56.010Z,7.75
2022-09-01T18:37:31.827Z,4.40
2022-09-01T18:40:06.804Z,3.50
2022-09-01T18:42:48.091Z,6.03
2022-09-01T18:45:30.099Z,3.35
2022-09-01T18:48:02.953Z,3.22
2022-09-01T18:50:34.513Z,5.05
2022-09-01T18:53:20.050Z,3.95
2022-09-01T18:56:05.651Z,3.45
2022-09-01T18:58:33.655Z,3.55
2022-09-01T19:01:06.171Z,4.00
2022-09-01T19:03:41.727Z,4.88
2022-09-01T19:06:10.611Z,5.25
2022-09-01T19:08:56.259Z,4.22
2022-09-01T19:11:45.969Z,5.78
2022-09-01T19:14:12.731Z,3.30
2022-09-01T19:16:42.648Z,4.85
2022-09-01T19:19:27.729Z,3.40
2022-09-01T19:21:55.898Z,5.13
2022-09-01T19:24:25.700Z,3.90
2022-09-01T19:26:56.899Z,5.32
2022-09-01T19:29:27.403Z,3.97
2022-09-01T19:31:57.625Z,4.65
2022-09-01T19:34:26.934Z,3.72
2022-09-01T19:36:55.271Z,3.35
2022-09-01T19:39:25.264Z,4.03
2022-09-01T19:42:00.855Z,4.05
2022-09-01T19:44:36.802Z,5.82
2022-09-01T19:47:06.394Z,4.35
2022-09-01T19:50:00.211Z,4.85
2022-09-01T19:52:33.110Z,5.00
2022-09-01T19:55:00.937Z,4.32
2022-09-01T19:57:30.639Z,4.45
2022-09-01T20:00:00.295Z,3.47
2022-09-01T20:02:30.724Z,3.47
2022-09-01T20:05:09.410Z,3.13
2022-09-01T20:07:56.460Z,4.82
2022-09-01T20:10:23.396Z,4.10
2022-09-01T20:13:00.413Z,3.45
2022-09-01T20:15:33.738Z,5.45
2022-09-01T20:18:04.301Z,3.60
2022-09-01T20:20:37.692Z,6.22
2022-09-01T20:23:15.781Z,4.40
2022-09-01T20:26:01.436Z,6.18
2022-09-01T20:28:51.337Z,5.20
2022-09-01T20:31:22.920Z,7.85
2022-09-01T20:33:53.626Z,4.30
2022-09-01T20:36:25.141Z,3.47
2022-09-01T20:39:19.571Z,4.07
2022-09-01T20:41:52.448Z,3.72
2022-09-01T20:44:38.224Z,3.90
2022-09-01T20:47:05.374Z,5.40
2022-09-01T20:49:33.697Z,4.28
2022-09-01T20:52:05.390Z,5.18
2022-09-01T20:54:35.583Z,4.65
2022-09-01T20:57:05.051Z,4.30
2022-09-01T20:59:55.071Z,3.22
2022-09-01T21:02:27.983Z,4.15
2022-09-01T21:05:13.665Z,3.88
2022-09-01T21:07:45.090Z,4.32
2022-09-01T21:10:31.463Z,4.72
2022-09-01T21:13:21.705Z,3.53
2022-09-01T21:15:55.208Z,3.45
2022-09-01T21:18:21.875Z,6.90
2022-09-01T21:20:48.482Z,2.47
2022-09-01T21:23:16.323Z,3.70
2022-09-01T21:25:44.183Z,4.20
2022-09-01T21:28:13.176Z,4.35
2022-09-01T21:30:39.995Z,4.63
2022-09-01T21:33:06.773Z,2.97
2022-09-01T21:35:33.599Z,5.22
2022-09-01T21:38:00.505Z,2.85
2022-09-01T21:40:27.325Z,3.28
2022-09-01T21:42:55.795Z,4.40
2022-09-01T21:45:23.043Z,4.18
2022-09-01T21:47:50.461Z,3.03
2022-09-01T21:50:19.230Z,3.03
2022-09-01T21:52:46.146Z,2.83
2022-09-01T21:55:13.108Z,3.38
2022-09-01T21:57:39.785Z,3.58
2022-09-01T22:00:12.134Z,2.65
2022-09-01T22:02:41.623Z,4.43
2022-09-01T22:05:08.604Z,8.43
2022-09-01T22:07:36.040Z,3.90
2022-09-01T22:10:02.898Z,3.22
2022-09-01T22:12:30.296Z,3.03
2022-09-01T22:14:56.960Z,3.40
2022-09-01T22:17:23.755Z,3.05
2022-09-01T22:19:50.473Z,4.20
2022-09-01T22:22:17.176Z,3.63
2022-09-01T22:24:43.890Z,3.75
2022-09-01T22:27:10.553Z,6.65
2022-09-01T22:29:37.948Z,5.30
2022-09-01T22:32:04.780Z,4.80
2022-09-01T22:34:35.009Z,3.40
2022-09-01T22:37:01.812Z,3.05
2022-09-01T22:39:28.584Z,2.80
2022-09-01T22:41:55.590Z,3.97
2022-09-01T22:44:22.558Z,5.28
2022-09-01T22:46:49.250Z,5.18
2022-09-01T22:49:15.950Z,2.83
2022-09-01T22:51:42.912Z,2.70
2022-09-01T22:54:10.223Z,4.85
2022-09-01T22:56:38.526Z,3.10
2022-09-01T22:59:07.209Z,2.90
2022-09-01T23:01:35.731Z,3.97
2022-09-01T23:04:04.652Z,3.35
2022-09-01T23:06:32.218Z,4.88
2022-09-01T23:09:00.249Z,2.75
2022-09-01T23:11:27.458Z,2.90
2022-09-01T23:13:54.343Z,5.75
2022-09-01T23:16:21.954Z,3.05
2022-09-01T23:18:49.235Z,4.97
2022-09-01T23:21:18.369Z,4.80
2022-09-01T23:23:45.159Z,3.13
2022-09-01T23:26:13.473Z,5.25
2022-09-01T23:28:40.748Z,2.63
2022-09-01T23:31:08.835Z,3.20
2022-09-01T23:33:35.599Z,3.22
2022-09-01T23:36:02.859Z,3.35
2022-09-01T23:38:29.570Z,8.38
2022-09-01T23:40:56.420Z,3.38
2022-09-01T23:43:24.221Z,4.95
2022-09-01T23:45:52.449Z,7.63
2022-09-01T23:48:19.482Z,2.88
2022-09-01T23:50:46.226Z,5.30
2022-09-01T23:53:13.908Z,3.33
2022-09-01T23:55:45.583Z,3.72
2022-09-01T23:58:12.460Z,2.33
